createdAt,value
2018-05-01T00:08:52.000Z,993.78
2018-05-01T00:18:52.000Z,993.82
2018-05-01T00:28:52.000Z,993.837
2018-05-01T00:38:52.000Z,993.948
2018-05-01T00:48:52.000Z,994.06
2018-05-01T00:58:52.000Z,994.033
2018-05-01T01:08:52.000Z,994.141
2018-05-01T01:18:52.000Z,994.14
2018-05-01T01:28:53.000Z,994.222
2018-05-01T01:38:52.000Z,994.322
2018-05-01T01:48:52.000Z,994.425
2018-05-01T01:58:52.000Z,994.559
2018-05-01T02:08:52.000Z,994.597
2018-05-01T02:18:52.000Z,994.571
2018-05-01T02:28:52.000Z,994.627
2018-05-01T02:38:52.000Z,994.712
2018-05-01T02:48:52.000Z,994.752
2018-05-01T02:58:52.000Z,994.797
2018-05-01T03:08:52.000Z,994.96
2018-05-01T03:18:52.000Z,994.913
2018-05-01T03:28:52.000Z,995.015
2018-05-01T03:38:52.000Z,995.202
2018-05-01T03:48:52.000Z,995.338
2018-05-01T03:58:52.000Z,995.431
2018-05-01T04:08:52.000Z,995.604
2018-05-01T04:18:52.000Z,995.821
2018-05-01T04:28:52.000Z,995.984
2018-05-01T04:38:52.000Z,996.124
2018-05-01T04:48:52.000Z,996.277
2018-05-01T04:58:52.000Z,996.509
2018-05-01T05:08:52.000Z,996.709
2018-05-01T05:18:52.000Z,996.919
2018-05-01T05:28:52.000Z,997.069
2018-05-01T05:38:52.000Z,997.208
2018-05-01T05:48:52.000Z,997.501
2018-05-01T05:58:52.000Z,997.661
2018-05-01T06:08:53.000Z,997.8
2018-05-01T06:18:52.000Z,998.014
2018-05-01T06:28:52.000Z,998.201
2018-05-01T06:38:53.000Z,998.382
2018-05-01T06:48:53.000Z,998.524
2018-05-01T06:58:53.000Z,998.817
2018-05-01T07:08:53.000Z,999.075
2018-05-01T07:18:53.000Z,999.169
2018-05-01T07:28:53.000Z,999.36
2018-05-01T07:38:53.000Z,999.493
2018-05-01T07:48:53.000Z,999.631
2018-05-01T07:58:53.000Z,999.832
2018-05-01T08:08:53.000Z,999.977
2018-05-01T08:18:53.000Z,1000.128
2018-05-01T08:28:53.000Z,1000.38
2018-05-01T08:48:53.000Z,1000.685
2018-05-01T08:58:53.000Z,1000.756
2018-05-01T09:08:53.000Z,1001.03
2018-05-01T09:18:53.000Z,1001.288
2018-05-01T09:28:53.000Z,1001.37
2018-05-01T09:38:53.000Z,1001.504
2018-05-01T09:48:53.000Z,1001.702
2018-05-01T09:58:53.000Z,1001.643
2018-05-01T10:08:53.000Z,1001.732
2018-05-01T10:18:53.000Z,1001.81
2018-05-01T10:28:53.000Z,1001.943
2018-05-01T10:38:53.000Z,1001.995
2018-05-01T10:48:53.000Z,1002.109
2018-05-01T10:58:53.000Z,1002.225
2018-05-01T11:08:53.000Z,1002.301
2018-05-01T11:18:53.000Z,1002.564
2018-05-01T11:28:53.000Z,1002.549
2018-05-01T11:38:53.000Z,1002.636
2018-05-01T11:48:53.000Z,1002.758
2018-05-01T11:58:55.000Z,1002.847
2018-05-01T12:08:53.000Z,1003.088
2018-05-01T12:18:53.000Z,1003.156
2018-05-01T12:28:53.000Z,1003.211
2018-05-01T12:38:53.000Z,1003.284
2018-05-01T12:48:53.000Z,1003.357
2018-05-01T12:58:53.000Z,1003.497
2018-05-01T13:08:53.000Z,1003.53
2018-05-01T13:18:53.000Z,1003.603
2018-05-01T13:28:53.000Z,1003.73
2018-05-01T13:38:53.000Z,1003.765
2018-05-01T13:48:53.000Z,1003.839
2018-05-01T13:58:53.000Z,1003.871
2018-05-01T14:08:53.000Z,1003.87
2018-05-01T14:18:53.000Z,1004
2018-05-01T14:28:53.000Z,1004.125
2018-05-01T14:38:53.000Z,1004.246
2018-05-01T14:48:54.000Z,1004.315
2018-05-01T14:58:53.000Z,1004.345
2018-05-01T15:08:54.000Z,1004.379
2018-05-01T15:18:54.000Z,1004.521
2018-05-01T15:28:54.000Z,1004.544
2018-05-01T15:38:54.000Z,1004.592
2018-05-01T15:48:54.000Z,1004.672
2018-05-01T15:58:54.000Z,1004.732
2018-05-01T16:08:54.000Z,1004.819
2018-05-01T16:18:54.000Z,1004.847
2018-05-01T16:28:54.000Z,1004.835
2018-05-01T16:38:54.000Z,1004.869
2018-05-01T16:48:54.000Z,1004.942
2018-05-01T16:58:54.000Z,1004.905
2018-05-01T17:08:54.000Z,1004.923
2018-05-01T17:18:54.000Z,1004.97
2018-05-01T17:28:54.000Z,1005.027
2018-05-01T17:38:54.000Z,1005.169
2018-05-01T17:48:54.000Z,1005.045
2018-05-01T17:58:54.000Z,1005.204
2018-05-01T18:08:55.000Z,1005.419
2018-05-01T18:18:54.000Z,1005.535
2018-05-01T18:28:55.000Z,1005.546
2018-05-01T18:38:54.000Z,1005.606
2018-05-01T18:48:54.000Z,1005.646
2018-05-01T18:58:54.000Z,1005.692
2018-05-01T19:08:58.000Z,1005.864
2018-05-01T19:18:54.000Z,1005.906
2018-05-01T19:28:55.000Z,1006.038
2018-05-01T19:38:54.000Z,1006.036
2018-05-01T19:48:54.000Z,1005.981
2018-05-01T19:58:54.000Z,1006.103
2018-05-01T20:08:54.000Z,1006.247
2018-05-01T20:18:54.000Z,1006.24
2018-05-01T20:28:54.000Z,1006.279
2018-05-01T20:38:54.000Z,1006.238
2018-05-01T20:48:54.000Z,1006.229
2018-05-01T20:58:54.000Z,1006.222
2018-05-01T21:08:54.000Z,1006.324
2018-05-01T21:18:54.000Z,1006.415
2018-05-01T21:28:54.000Z,1006.538
2018-05-01T21:38:54.000Z,1006.545
2018-05-01T21:48:54.000Z,1006.529
2018-05-01T21:58:54.000Z,1006.52
2018-05-01T22:08:54.000Z,1006.473
2018-05-01T22:18:54.000Z,1006.446
2018-05-01T22:28:54.000Z,1006.426
2018-05-01T22:38:54.000Z,1006.506
2018-05-01T22:58:54.000Z,1006.622
2018-05-01T23:08:54.000Z,1006.565
2018-05-01T23:18:54.000Z,1006.473
2018-05-01T23:28:54.000Z,1006.426
2018-05-01T23:38:54.000Z,1006.367
2018-05-01T23:58:55.000Z,1006.206
